Time;durP1;ratioP1;P1;durP2;ratioP2;P2;SDS_P1;SDS_P2;PMS_P1;PMS_P2;Temp;Humidity;BMP_temperature;BMP_pressure;BME280_temperature;BME280_humidity;BME280_pressure;Samples;Min_cycle;Max_cycle;Signal;HPM_P1;HPM_P2
2021/12/17 00:02:35;;;;;;;153.77;45.27;;;8.60;99.90;;;;;;5056614;28;20613;-77
2021/12/17 00:05:06;;;;;;;133.20;40.73;;;8.60;99.90;;;;;;5074149;28;20229;-77
2021/12/17 00:07:30;;;;;;;141.37;41.70;;;8.60;99.90;;;;;;5075295;28;20186;-77
2021/12/17 00:09:58;;;;;;;129.27;39.80;;;8.60;99.90;;;;;;5075149;28;20542;-78
2021/12/17 00:12:26;;;;;;;133.23;39.43;;;8.60;99.90;;;;;;5075249;28;20179;-78
2021/12/17 00:14:52;;;;;;;124.83;37.97;;;8.60;99.90;;;;;;5057140;28;20761;-78
2021/12/17 00:17:25;;;;;;;120.03;40.77;;;8.60;99.90;;;;;;5058072;28;20183;-78
2021/12/17 00:53:33;;;;;;;116.17;36.80;;;8.50;99.90;;;;;;5074452;28;20228;-77
2021/12/17 00:55:58;;;;;;;98.00;34.93;;;8.60;99.90;;;;;;5074490;28;20183;-77
2021/12/17 00:58:24;;;;;;;98.70;34.53;;;8.60;99.90;;;;;;5056461;28;20190;-77
2021/12/17 01:00:50;;;;;;;96.97;33.63;;;8.50;99.90;;;;;;5056268;28;20178;-77
2021/12/17 01:03:16;;;;;;;96.10;34.50;;;8.50;99.90;;;;;;5056351;28;20310;-77
2021/12/17 01:05:42;;;;;;;108.27;35.17;;;8.50;99.90;;;;;;5056638;28;20305;-77
2021/12/17 01:08:08;;;;;;;102.90;35.20;;;8.50;99.90;;;;;;5077926;28;20186;-77
2021/12/17 01:10:56;;;;;;;118.33;37.27;;;8.50;99.90;;;;;;5078581;28;20182;-79
2021/12/17 01:13:23;;;;;;;105.30;35.30;;;8.50;99.90;;;;;;5076845;28;20637;-79
2021/12/17 01:15:50;;;;;;;108.17;33.80;;;8.50;99.90;;;;;;5076372;28;20194;-77
2021/12/17 01:18:20;;;;;;;112.10;35.13;;;8.50;99.90;;;;;;5078069;28;20604;-77
2021/12/17 01:21:22;;;;;;;105.20;35.13;;;8.50;99.90;;;;;;5060140;28;20178;-79
2021/12/17 01:37:08;;;;;;;81.37;27.57;;;8.50;99.90;;;;;;5078320;28;20225;-77
2021/12/17 01:44:25;;;;;;;89.27;31.07;;;8.50;99.90;;;;;;5077187;28;20272;-77
2021/12/17 01:46:53;;;;;;;87.80;30.07;;;8.50;99.90;;;;;;5059098;28;20607;-77
2021/12/17 02:00:00;;;;;;;105.07;34.30;;;8.50;99.90;;;;;;5077205;28;20182;-78
2021/12/17 02:02:28;;;;;;;108.97;34.03;;;8.40;99.90;;;;;;5076997;28;20246;-77
2021/12/17 02:04:54;;;;;;;117.00;36.47;;;8.50;99.90;;;;;;5058424;28;20257;-77
2021/12/17 02:07:19;;;;;;;104.13;33.50;;;8.50;99.90;;;;;;5059117;28;20183;-79
2021/12/17 02:31:54;;;;;;;86.40;29.97;;;8.40;99.90;;;;;;5077112;28;20170;-78
2021/12/17 02:34:41;;;;;;;89.00;32.03;;;8.40;99.90;;;;;;5058233;28;20213;-78
2021/12/17 02:37:11;;;;;;;90.47;30.47;;;8.40;99.90;;;;;;5058172;28;20244;-77
2021/12/17 02:45:31;;;;;;;96.10;30.70;;;8.40;99.90;;;;;;5076121;28;20270;-77
2021/12/17 02:45:34;;;;;;;102.00;33.03;;;8.40;99.90;;;;;;5076349;28;20268;-77
2021/12/17 02:48:04;;;;;;;93.50;31.03;;;8.40;99.90;;;;;;5058256;28;20232;-77
2021/12/17 02:50:32;;;;;;;97.43;30.83;;;8.40;99.90;;;;;;5076230;28;20179;-77
2021/12/17 02:52:59;;;;;;;85.57;29.80;;;8.40;99.90;;;;;;5075396;28;20182;-77
2021/12/17 02:55:25;;;;;;;94.43;30.73;;;8.40;99.90;;;;;;5057547;28;20186;-78
2021/12/17 02:57:51;;;;;;;102.00;33.73;;;8.50;99.90;;;;;;5058146;28;20190;-77
2021/12/17 03:00:17;;;;;;;98.37;33.87;;;8.40;99.90;;;;;;5057463;28;20572;-77
2021/12/17 03:02:46;;;;;;;100.57;33.40;;;8.50;99.90;;;;;;5057556;28;20198;-77
2021/12/17 03:05:12;;;;;;;89.37;30.20;;;8.40;99.90;;;;;;5057724;28;20222;-77
2021/12/17 03:07:41;;;;;;;82.90;28.70;;;8.40;99.90;;;;;;5075243;28;20325;-77
2021/12/17 03:10:10;;;;;;;84.37;28.83;;;8.50;99.90;;;;;;5075347;28;20190;-78
2021/12/17 03:13:01;;;;;;;85.63;26.73;;;8.50;99.90;;;;;;5075917;28;20210;-77
2021/12/17 03:15:38;;;;;;;74.33;24.40;;;8.40;99.90;;;;;;5074877;28;20187;-77
2021/12/17 03:18:41;;;;;;;75.00;24.60;;;8.50;99.90;;;;;;5057734;28;20201;-77
2021/12/17 03:23:41;;;;;;;85.53;27.97;;;8.40;99.90;;;;;;5076732;28;20217;-77
2021/12/17 03:26:10;;;;;;;101.03;30.40;;;8.40;99.90;;;;;;5078264;28;20203;-77
2021/12/17 03:28:38;;;;;;;91.70;29.90;;;8.40;99.90;;;;;;5075492;28;20179;-77
2021/12/17 03:31:05;;;;;;;85.67;28.40;;;8.40;99.90;;;;;;5074534;28;20647;-77
2021/12/17 03:33:31;;;;;;;83.60;28.97;;;8.50;99.90;;;;;;5057232;28;20214;-77
2021/12/17 03:36:00;;;;;;;82.90;28.67;;;8.50;99.90;;;;;;5075269;28;20175;-77
2021/12/17 03:38:27;;;;;;;96.10;30.93;;;8.50;99.90;;;;;;5075125;28;20702;-77
2021/12/17 03:41:04;;;;;;;86.20;28.40;;;8.50;99.90;;;;;;5074359;28;20666;-77
2021/12/17 03:43:32;;;;;;;87.80;27.63;;;8.50;99.90;;;;;;5056805;28;20210;-77
2021/12/17 03:45:58;;;;;;;83.77;28.93;;;8.50;99.90;;;;;;5074391;28;20229;-77
2021/12/17 03:48:24;;;;;;;89.20;27.87;;;8.50;99.90;;;;;;5074807;28;20179;-77
2021/12/17 03:50:49;;;;;;;83.20;30.87;;;8.40;99.90;;;;;;5056564;28;20187;-78
2021/12/17 03:53:15;;;;;;;99.40;33.77;;;8.50;99.90;;;;;;5074988;28;20203;-77
2021/12/17 03:55:40;;;;;;;100.97;33.73;;;8.40;99.90;;;;;;5075229;28;20183;-76
2021/12/17 03:58:06;;;;;;;97.17;33.40;;;8.40;99.90;;;;;;5075302;28;20178;-79
2021/12/17 04:00:32;;;;;;;98.10;32.60;;;8.40;99.90;;;;;;5056883;28;20716;-77
2021/12/17 04:02:58;;;;;;;85.93;30.30;;;8.50;99.90;;;;;;5075090;28;20186;-77
2021/12/17 04:05:25;;;;;;;80.47;26.93;;;8.50;99.90;;;;;;5056611;28;20336;-77
2021/12/17 04:07:51;;;;;;;75.93;24.77;;;8.40;99.90;;;;;;5074974;28;20187;-77
2021/12/17 04:10:20;;;;;;;86.83;25.63;;;8.40;99.90;;;;;;5075465;28;20182;-78
2021/12/17 04:15:13;;;;;;;93.17;29.10;;;8.40;99.90;;;;;;5076960;28;20224;-77
2021/12/17 04:17:44;;;;;;;95.87;31.57;;;8.50;99.90;;;;;;5076715;28;20167;-77
2021/12/17 04:20:10;;;;;;;95.10;31.27;;;8.50;99.90;;;;;;5075132;28;20209;-77
2021/12/17 04:22:36;;;;;;;81.70;29.43;;;8.50;99.90;;;;;;5058277;28;20775;-77
2021/12/17 04:25:02;;;;;;;88.70;28.87;;;8.50;99.90;;;;;;5056875;28;20336;-77
2021/12/17 04:27:27;;;;;;;88.63;30.80;;;8.50;99.90;;;;;;5075082;28;20186;-77
2021/12/17 04:29:53;;;;;;;84.27;30.40;;;8.50;99.90;;;;;;5075248;28;20175;-77
2021/12/17 04:32:19;;;;;;;83.80;30.47;;;8.50;99.90;;;;;;5074351;28;20175;-77
2021/12/17 04:34:45;;;;;;;92.53;34.83;;;8.50;99.90;;;;;;5056837;28;20214;-77
2021/12/17 04:37:10;;;;;;;91.43;35.33;;;8.50;99.90;;;;;;5074930;28;20555;-77
2021/12/17 04:39:36;;;;;;;88.17;37.50;;;8.50;99.90;;;;;;5056181;28;20553;-78
2021/12/17 04:42:08;;;;;;;96.23;39.87;;;8.50;99.90;;;;;;5076555;28;20629;-77
2021/12/17 04:44:37;;;;;;;95.07;37.83;;;8.50;99.90;;;;;;5080312;28;20199;-77
2021/12/17 04:57:55;;;;;;;94.10;37.80;;;8.60;99.90;;;;;;5078307;28;20174;-77
2021/12/17 05:00:28;;;;;;;104.57;38.77;;;8.60;99.90;;;;;;5077818;28;20584;-77
2021/12/17 05:02:57;;;;;;;94.20;36.90;;;8.60;99.90;;;;;;5078047;28;20190;-77
2021/12/17 05:05:30;;;;;;;94.77;36.87;;;8.60;99.90;;;;;;5078527;28;20591;-77
2021/12/17 05:08:01;;;;;;;93.27;36.67;;;8.60;99.90;;;;;;5078019;28;20251;-77
2021/12/17 05:18:25;;;;;;;88.43;34.67;;;8.60;99.90;;;;;;5078259;28;20177;-78
2021/12/17 05:20:57;;;;;;;95.27;35.73;;;8.60;99.90;;;;;;5059070;28;20187;-77
2021/12/17 05:23:29;;;;;;;82.80;33.97;;;8.60;99.90;;;;;;5059117;28;20214;-77
2021/12/17 05:25:55;;;;;;;118.03;41.70;;;8.60;99.90;;;;;;5076832;28;20191;-77
2021/12/17 05:28:21;;;;;;;122.60;42.00;;;8.60;99.90;;;;;;5077430;28;20228;-77
2021/12/17 05:30:48;;;;;;;124.37;42.40;;;8.60;99.90;;;;;;5059130;28;20187;-78
2021/12/17 05:33:18;;;;;;;115.43;39.73;;;8.60;99.90;;;;;;5076839;28;20194;-77
2021/12/17 05:35:44;;;;;;;105.40;40.27;;;8.60;99.90;;;;;;5077091;28;20762;-77
2021/12/17 05:38:11;;;;;;;123.37;41.23;;;8.60;99.90;;;;;;5078148;28;20210;-78
2021/12/17 05:40:38;;;;;;;123.73;42.13;;;8.60;99.90;;;;;;5077023;28;20205;-77
2021/12/17 05:43:06;;;;;;;144.50;43.67;;;8.60;99.90;;;;;;5059471;28;20217;-78
2021/12/17 05:45:35;;;;;;;129.47;40.17;;;8.60;99.90;;;;;;5058814;28;20206;-77
2021/12/17 05:48:07;;;;;;;112.07;39.70;;;8.60;99.90;;;;;;5076916;28;20170;-77
2021/12/17 05:50:36;;;;;;;121.60;40.70;;;8.60;99.90;;;;;;5059598;28;20205;-78
2021/12/17 05:53:03;;;;;;;116.67;38.37;;;8.60;99.90;;;;;;5077962;28;20167;-78
2021/12/17 05:55:29;;;;;;;109.83;38.53;;;8.60;99.90;;;;;;5076876;28;20257;-78
2021/12/17 05:57:54;;;;;;;107.23;36.57;;;8.60;99.90;;;;;;5077540;28;20216;-78
2021/12/17 06:00:21;;;;;;;108.73;37.33;;;8.60;99.90;;;;;;5077341;28;20190;-78
2021/12/17 06:02:48;;;;;;;112.50;38.43;;;8.60;99.90;;;;;;5077032;28;20257;-77
2021/12/17 06:05:14;;;;;;;106.53;34.80;;;8.60;99.90;;;;;;5077002;28;20210;-78
2021/12/17 06:07:39;;;;;;;103.63;35.10;;;8.60;99.90;;;;;;5059519;28;20175;-78
2021/12/17 06:10:06;;;;;;;147.97;43.53;;;8.60;99.90;;;;;;5059156;28;20186;-78
2021/12/17 06:12:31;;;;;;;132.07;40.97;;;8.60;99.90;;;;;;5059164;28;20210;-77
2021/12/17 06:14:57;;;;;;;116.03;39.30;;;8.60;99.90;;;;;;5058182;28;20334;-76
2021/12/17 06:17:23;;;;;;;124.60;40.30;;;8.60;99.90;;;;;;5075947;28;20186;-76
2021/12/17 06:19:49;;;;;;;141.63;39.13;;;8.60;99.90;;;;;;5076242;28;20600;-76
2021/12/17 06:22:15;;;;;;;120.80;38.20;;;8.60;99.90;;;;;;5085981;23;20231;-80
2021/12/17 06:24:44;;;;;;;121.60;39.30;;;8.60;99.90;;;;;;5056293;28;20200;-79
2021/12/17 06:27:14;;;;;;;119.37;37.33;;;8.60;99.90;;;;;;5039342;28;20752;-79
2021/12/17 06:29:40;;;;;;;104.73;37.10;;;8.60;99.90;;;;;;5056700;28;20561;-80
2021/12/17 06:32:07;;;;;;;109.27;35.47;;;8.60;99.90;;;;;;5056895;28;20225;-79
2021/12/17 06:34:34;;;;;;;98.20;34.80;;;8.60;99.90;;;;;;5038537;28;20184;-80
2021/12/17 06:37:00;;;;;;;90.17;33.30;;;8.60;99.90;;;;;;5056441;28;20202;-82
2021/12/17 06:39:25;;;;;;;100.63;33.23;;;8.60;99.90;;;;;;5056473;28;20179;-80
2021/12/17 06:41:51;;;;;;;90.07;32.00;;;8.60;99.90;;;;;;5038865;28;20238;-79
2021/12/17 06:44:22;;;;;;;86.87;30.07;;;8.60;99.90;;;;;;5056194;28;20190;-79
2021/12/17 06:47:03;;;;;;;77.10;30.37;;;8.60;99.90;;;;;;5055780;28;20148;-80
2021/12/17 07:00:14;;;;;;;72.83;27.27;;;8.60;99.90;;;;;;5055568;28;20166;-80
2021/12/17 07:09:13;;;;;;;64.77;24.57;;;8.60;99.90;;;;;;5055905;28;20170;-80
2021/12/17 07:20:02;;;;;;;64.33;22.90;;;8.60;99.90;;;;;;5056396;28;20639;-80
2021/12/17 07:40:33;;;;;;;70.90;24.07;;;8.50;99.90;;;;;;5055287;28;20210;-80
2021/12/17 07:43:02;;;;;;;79.10;25.43;;;8.50;99.90;;;;;;5036811;28;20614;-79
2021/12/17 07:45:27;;;;;;;77.30;24.67;;;8.60;99.90;;;;;;5054710;28;20198;-80
2021/12/17 07:47:53;;;;;;;69.10;24.37;;;8.50;99.90;;;;;;5054618;28;20550;-80
2021/12/17 07:50:19;;;;;;;78.50;24.27;;;8.50;99.90;;;;;;5055002;28;20245;-80
2021/12/17 07:52:44;;;;;;;74.83;23.47;;;8.50;99.90;;;;;;5054851;28;20286;-80
2021/12/17 07:55:10;;;;;;;74.47;25.03;;;8.50;99.90;;;;;;5055431;28;20183;-80
2021/12/17 07:57:36;;;;;;;79.47;24.47;;;8.50;99.90;;;;;;5054569;28;20660;-80
2021/12/17 08:00:02;;;;;;;69.37;22.50;;;8.50;99.90;;;;;;5054664;28;20187;-80
2021/12/17 08:02:28;;;;;;;71.33;21.53;;;8.60;99.90;;;;;;5054664;28;20222;-80
2021/12/17 08:04:53;;;;;;;75.13;21.63;;;8.60;99.90;;;;;;5054820;28;20671;-79
2021/12/17 08:07:19;;;;;;;64.53;21.10;;;8.50;99.90;;;;;;5039284;28;20290;-79
2021/12/17 08:09:44;;;;;;;68.47;21.37;;;8.50;99.90;;;;;;5058573;28;20178;-79
2021/12/17 08:12:10;;;;;;;69.27;21.43;;;8.60;99.90;;;;;;5058703;28;20295;-80
2021/12/17 08:14:36;;;;;;;72.97;22.30;;;8.60;99.90;;;;;;5058915;28;20238;-80
2021/12/17 08:17:36;;;;;;;65.90;21.43;;;8.60;99.90;;;;;;5060813;28;20210;-80
2021/12/17 08:25:38;;;;;;;64.00;21.63;;;8.60;99.90;;;;;;5063239;28;20290;-79
2021/12/17 08:28:07;;;;;;;74.37;23.07;;;8.60;99.90;;;;;;5063021;28;20167;-80
2021/12/17 08:30:39;;;;;;;78.07;23.13;;;8.50;99.90;;;;;;5062700;28;20172;-81
2021/12/17 08:33:06;;;;;;;67.87;21.10;;;8.50;99.90;;;;;;5044110;28;20200;-79
2021/12/17 08:35:35;;;;;;;63.87;20.83;;;8.60;99.90;;;;;;5044574;28;20183;-79
2021/12/17 08:38:04;;;;;;;60.60;19.83;;;8.50;99.90;;;;;;5043984;28;20320;-79
2021/12/17 08:40:30;;;;;;;70.83;20.57;;;8.50;99.90;;;;;;5062326;28;20237;-79
2021/12/17 08:42:55;;;;;;;68.97;21.33;;;8.60;99.90;;;;;;5043994;28;20203;-79
2021/12/17 08:45:21;;;;;;;65.90;20.23;;;8.50;99.90;;;;;;5061746;28;20214;-80
2021/12/17 08:47:51;;;;;;;68.03;20.57;;;8.50;99.90;;;;;;5043826;28;20251;-79
2021/12/17 08:50:18;;;;;;;64.67;20.87;;;8.50;99.90;;;;;;5043797;28;20180;-80
2021/12/17 08:52:45;;;;;;;61.73;20.23;;;8.50;99.90;;;;;;5061923;28;20210;-80
2021/12/17 08:55:11;;;;;;;63.87;19.93;;;8.50;99.90;;;;;;5062117;28;20179;-79
2021/12/17 08:57:37;;;;;;;71.23;22.27;;;8.50;99.90;;;;;;5060751;28;20325;-79
2021/12/17 09:00:07;;;;;;;65.03;21.17;;;8.50;99.90;;;;;;5061347;28;20175;-79
2021/12/17 09:02:35;;;;;;;67.13;20.93;;;8.50;99.90;;;;;;5061911;28;20191;-79
2021/12/17 09:05:02;;;;;;;62.43;21.23;;;8.50;99.90;;;;;;5043684;28;20213;-79
2021/12/17 09:07:27;;;;;;;72.40;22.73;;;8.60;99.90;;;;;;5061340;28;20192;-79
2021/12/17 09:09:53;;;;;;;64.07;21.90;;;8.50;99.90;;;;;;5061417;28;20270;-79
2021/12/17 09:12:18;;;;;;;69.53;23.97;;;8.60;99.90;;;;;;5060975;28;20223;-79
2021/12/17 09:14:44;;;;;;;72.93;24.33;;;8.60;99.90;;;;;;5060970;28;20176;-79
2021/12/17 09:17:09;;;;;;;60.57;21.50;;;8.60;99.90;;;;;;5060879;28;20219;-79
2021/12/17 09:19:35;;;;;;;60.43;23.77;;;8.60;99.90;;;;;;5042853;28;20187;-79
2021/12/17 09:22:01;;;;;;;67.13;23.83;;;8.60;99.90;;;;;;5060835;28;20223;-79
2021/12/17 09:24:27;;;;;;;66.77;22.23;;;8.60;99.90;;;;;;5060393;28;20167;-80
2021/12/17 09:26:54;;;;;;;67.93;23.63;;;8.60;99.90;;;;;;5041674;28;20279;-79
2021/12/17 09:29:19;;;;;;;68.60;22.03;;;8.60;99.90;;;;;;5060096;28;20168;-79
2021/12/17 09:31:45;;;;;;;69.03;23.37;;;8.60;99.90;;;;;;5059825;28;20696;-79
2021/12/17 09:34:10;;;;;;;73.17;24.03;;;8.60;99.90;;;;;;5041804;28;20180;-79
2021/12/17 09:36:36;;;;;;;71.10;24.67;;;8.70;99.90;;;;;;5041927;28;20297;-79
2021/12/17 09:39:02;;;;;;;67.07;24.90;;;8.70;99.90;;;;;;5041679;28;20242;-79
2021/12/17 09:41:28;;;;;;;75.90;26.03;;;8.70;99.90;;;;;;5042060;28;20203;-79
2021/12/17 09:43:54;;;;;;;63.40;23.97;;;8.70;99.90;;;;;;5059465;28;20676;-79
2021/12/17 09:46:20;;;;;;;70.30;24.23;;;8.70;99.90;;;;;;5058930;28;20195;-79
2021/12/17 09:48:47;;;;;;;78.57;27.47;;;8.70;99.90;;;;;;5041839;28;20183;-79
2021/12/17 09:51:15;;;;;;;76.63;25.90;;;8.70;99.90;;;;;;5042276;28;20206;-79
2021/12/17 09:53:41;;;;;;;73.13;27.87;;;8.70;99.90;;;;;;5041733;28;20582;-79
2021/12/17 09:56:07;;;;;;;82.33;27.50;;;8.70;99.90;;;;;;5041556;28;20183;-79
2021/12/17 09:58:33;;;;;;;78.30;26.80;;;8.80;99.90;;;;;;5041089;28;20190;-79
2021/12/17 10:00:59;;;;;;;84.07;28.03;;;8.80;99.90;;;;;;5040029;28;20190;-79
2021/12/17 10:03:26;;;;;;;80.03;29.00;;;8.80;99.90;;;;;;5058687;28;20172;-80
2021/12/17 10:05:52;;;;;;;89.73;30.50;;;8.80;99.90;;;;;;5059914;28;20210;-79
2021/12/17 10:08:19;;;;;;;85.90;29.37;;;8.80;99.90;;;;;;5043663;28;20274;-79
2021/12/17 10:10:48;;;;;;;88.80;30.37;;;8.80;99.90;;;;;;5043766;28;20175;-79
2021/12/17 10:13:21;;;;;;;87.77;30.47;;;8.80;99.90;;;;;;5061919;28;20290;-79
2021/12/17 10:15:55;;;;;;;86.77;29.10;;;8.80;99.90;;;;;;5061299;28;20222;-78
2021/12/17 10:18:32;;;;;;;78.93;30.40;;;8.90;99.90;;;;;;5061807;28;20160;-79
2021/12/17 10:21:00;;;;;;;86.53;32.93;;;8.90;99.90;;;;;;5044176;28;20229;-78
2021/12/17 10:23:28;;;;;;;82.70;30.43;;;8.90;99.90;;;;;;5061498;28;20529;-79
2021/12/17 10:25:54;;;;;;;81.83;32.37;;;8.90;99.90;;;;;;5061613;28;20195;-79
2021/12/17 10:28:20;;;;;;;96.73;32.47;;;9.00;99.90;;;;;;5061815;28;20171;-79
2021/12/17 10:30:48;;;;;;;91.47;34.10;;;9.00;99.90;;;;;;5061267;28;20167;-79
2021/12/17 10:33:21;;;;;;;87.60;32.97;;;8.90;99.90;;;;;;5060096;28;20203;-78
2021/12/17 10:35:49;;;;;;;88.87;32.40;;;8.90;99.90;;;;;;5059140;28;20206;-78
2021/12/17 10:38:17;;;;;;;92.30;31.60;;;9.00;99.90;;;;;;5058564;28;20262;-80
2021/12/17 10:40:52;;;;;;;89.23;33.07;;;9.00;99.90;;;;;;5040646;28;20183;-78
2021/12/17 10:43:31;;;;;;;90.07;32.90;;;9.00;99.90;;;;;;5060499;28;20590;-78
2021/12/17 10:51:18;;;;;;;84.53;32.90;;;9.10;99.90;;;;;;5060996;28;21596;-78
2021/12/17 10:53:56;;;;;;;77.07;30.73;;;9.10;99.90;;;;;;5061485;28;20159;-78
2021/12/17 10:56:24;;;;;;;88.93;33.47;;;9.40;99.90;;;;;;5059946;28;20163;-80
2021/12/17 10:59:05;;;;;;;83.60;31.57;;;9.10;99.90;;;;;;5059782;28;20172;-80
2021/12/17 11:01:37;;;;;;;69.80;29.67;;;9.10;99.90;;;;;;5042712;28;20230;-79
2021/12/17 11:04:09;;;;;;;78.37;29.70;;;9.10;99.90;;;;;;5061767;28;20183;-79
2021/12/17 11:07:02;;;;;;;78.13;30.10;;;9.10;99.90;;;;;;5043031;28;20202;-78
2021/12/17 11:09:43;;;;;;;71.70;30.23;;;9.10;99.90;;;;;;5041206;28;20186;-79
2021/12/17 11:12:14;;;;;;;70.77;29.90;;;9.20;99.90;;;;;;5042794;28;20199;-79
2021/12/17 11:14:44;;;;;;;73.33;29.73;;;9.10;99.90;;;;;;5060444;28;20180;-79
2021/12/17 11:17:15;;;;;;;61.93;29.70;;;9.20;99.90;;;;;;5041307;28;20191;-79
2021/12/17 11:19:41;;;;;;;68.43;29.83;;;9.10;99.90;;;;;;5059680;28;20172;-79
2021/12/17 11:22:07;;;;;;;68.13;31.30;;;9.20;99.90;;;;;;5043204;28;20226;-78
2021/12/17 11:24:35;;;;;;;68.60;30.10;;;9.10;99.90;;;;;;5062115;28;20307;-79
2021/12/17 11:27:02;;;;;;;63.20;29.67;;;9.10;99.90;;;;;;5061477;28;20183;-78
2021/12/17 11:29:28;;;;;;;66.80;31.33;;;9.10;99.90;;;;;;5061018;28;20175;-79
2021/12/17 11:31:54;;;;;;;72.63;31.87;;;9.10;99.90;;;;;;5061674;28;20199;-78
2021/12/17 11:34:20;;;;;;;67.47;30.63;;;9.10;99.90;;;;;;5043123;28;20180;-79
2021/12/17 11:36:47;;;;;;;77.63;33.37;;;9.10;99.90;;;;;;5060775;28;20195;-79
2021/12/17 11:39:25;;;;;;;72.27;31.03;;;9.10;99.90;;;;;;5061367;28;20266;-79
2021/12/17 11:42:14;;;;;;;77.20;32.60;;;9.10;99.90;;;;;;5043322;28;20324;-78
2021/12/17 11:44:42;;;;;;;71.13;32.33;;;9.10;99.90;;;;;;5061222;28;20490;-79
2021/12/17 11:47:10;;;;;;;68.40;31.97;;;9.20;99.90;;;;;;5060916;28;20199;-79
2021/12/17 11:49:50;;;;;;;66.47;30.63;;;9.20;99.90;;;;;;5060625;28;20198;-79
2021/12/17 11:52:43;;;;;;;64.90;32.17;;;9.20;99.90;;;;;;5043441;28;20208;-79
2021/12/17 11:55:28;;;;;;;74.90;30.80;;;9.20;99.90;;;;;;5053415;28;20187;-79
2021/12/17 11:57:57;;;;;;;62.83;32.47;;;9.20;99.90;;;;;;5061197;28;20658;-79
2021/12/17 12:00:46;;;;;;;60.77;30.43;;;9.20;99.90;;;;;;5057735;28;20168;-79
2021/12/17 12:03:18;;;;;;;57.20;29.80;;;9.20;99.90;;;;;;5031860;28;20210;-79
2021/12/17 12:05:46;;;;;;;56.07;29.00;;;9.20;99.90;;;;;;5040658;28;20214;-78
2021/12/17 12:08:36;;;;;;;57.33;29.57;;;9.20;99.90;;;;;;5041241;28;20762;-79
2021/12/17 12:11:13;;;;;;;59.70;29.70;;;9.30;99.90;;;;;;5045782;28;20195;-79
2021/12/17 12:13:44;;;;;;;59.33;29.70;;;9.30;99.90;;;;;;5064843;28;20538;-79
2021/12/17 12:16:15;;;;;;;53.77;27.13;;;9.30;99.90;;;;;;5064031;28;20195;-79
2021/12/17 12:18:52;;;;;;;51.03;28.90;;;9.30;99.90;;;;;;5045952;28;20266;-79
2021/12/17 12:21:19;;;;;;;56.23;27.53;;;9.30;99.90;;;;;;5045345;28;20230;-79
2021/12/17 12:24:09;;;;;;;45.27;28.00;;;9.30;99.90;;;;;;5072370;23;20227;-79
2021/12/17 12:26:45;;;;;;;51.00;26.60;;;9.30;99.90;;;;;;5075518;28;20282;-79
2021/12/17 12:29:19;;;;;;;48.83;27.63;;;9.30;99.90;;;;;;5076155;28;20183;-79
2021/12/17 12:31:51;;;;;;;44.17;25.57;;;9.30;99.90;;;;;;5057801;28;20269;-79
2021/12/17 12:34:20;;;;;;;46.23;26.20;;;9.30;99.90;;;;;;5058304;28;20199;-79
2021/12/17 12:36:51;;;;;;;42.07;25.17;;;9.30;99.90;;;;;;5075598;28;20179;-79
2021/12/17 12:39:25;;;;;;;38.83;24.47;;;9.20;99.90;;;;;;5075587;28;20262;-79
2021/12/17 12:42:09;;;;;;;43.00;24.53;;;9.30;99.90;;;;;;5075438;28;20240;-78
2021/12/17 12:44:49;;;;;;;40.80;25.63;;;9.20;99.90;;;;;;5075089;28;20221;-78
2021/12/17 12:47:34;;;;;;;41.27;23.90;;;9.30;99.90;;;;;;5075183;28;20175;-78
2021/12/17 12:50:10;;;;;;;47.13;24.57;;;9.30;99.90;;;;;;5056812;28;20175;-78
2021/12/17 12:52:45;;;;;;;41.27;24.03;;;9.30;99.90;;;;;;5076140;28;20166;-79
2021/12/17 12:55:20;;;;;;;45.07;26.30;;;9.30;99.90;;;;;;5076454;28;20648;-79
2021/12/17 12:57:48;;;;;;;44.03;25.17;;;9.30;99.90;;;;;;5075962;28;20167;-81
2021/12/17 13:00:29;;;;;;;40.43;24.47;;;9.30;99.90;;;;;;5057417;28;20190;-80
2021/12/17 13:02:58;;;;;;;37.87;21.37;;;9.30;99.90;;;;;;5077538;28;20250;-79
2021/12/17 13:05:25;;;;;;;33.43;20.57;;;9.20;99.90;;;;;;5078939;28;20215;-80
2021/12/17 13:07:59;;;;;;;32.90;20.40;;;9.20;99.90;;;;;;5061320;28;20604;-79
2021/12/17 13:10:30;;;;;;;32.30;19.17;;;9.20;99.90;;;;;;5079667;28;20167;-79
2021/12/17 13:14:03;;;;;;;29.97;18.37;;;9.20;99.90;;;;;;5061902;28;20182;-79
2021/12/17 13:16:15;;;;;;;23.43;17.40;;;9.20;99.90;;;;;;5066184;28;20190;-80
2021/12/17 13:24:13;;;;;;;20.83;15.07;;;9.10;99.90;;;;;;5080196;28;20221;-79
2021/12/17 13:27:12;;;;;;;21.47;14.53;;;9.10;99.90;;;;;;5079734;28;20223;-80
2021/12/17 13:29:40;;;;;;;21.27;13.43;;;9.10;99.90;;;;;;5079821;28;20167;-79
2021/12/17 13:32:09;;;;;;;19.23;13.30;;;9.10;99.90;;;;;;5061583;28;20185;-80
2021/12/17 13:35:01;;;;;;;18.27;12.53;;;9.10;99.90;;;;;;5061629;28;20198;-80
2021/12/17 13:37:32;;;;;;;19.17;11.77;;;9.00;99.90;;;;;;5058572;28;20175;-80
2021/12/17 13:40:10;;;;;;;20.73;12.47;;;9.00;99.90;;;;;;5080175;28;20154;-80
2021/12/17 13:42:42;;;;;;;16.00;11.57;;;9.10;99.90;;;;;;5062263;28;20175;-80
2021/12/17 13:45:21;;;;;;;15.10;11.47;;;9.10;99.90;;;;;;5080586;28;20195;-79
2021/12/17 13:47:50;;;;;;;16.90;11.73;;;9.10;99.90;;;;;;5062146;28;20175;-80
2021/12/17 13:50:33;;;;;;;17.40;11.77;;;9.10;99.90;;;;;;5062779;28;20174;-80
2021/12/17 13:53:16;;;;;;;17.40;12.20;;;9.10;99.90;;;;;;5080097;28;20275;-79
2021/12/17 13:55:47;;;;;;;17.30;10.70;;;9.10;99.90;;;;;;5080878;28;20175;-80
2021/12/17 13:58:20;;;;;;;14.33;11.13;;;9.00;99.90;;;;;;5084064;28;20182;-79
2021/12/17 14:00:49;;;;;;;13.27;9.97;;;9.00;99.90;;;;;;5083606;28;20179;-79
2021/12/17 14:03:19;;;;;;;13.87;9.40;;;9.00;99.90;;;;;;5078663;28;20206;-80
2021/12/17 14:05:51;;;;;;;12.03;8.33;;;9.00;99.90;;;;;;5078656;28;20198;-79
2021/12/17 14:08:21;;;;;;;10.83;8.33;;;9.00;99.90;;;;;;5078356;28;20183;-78
2021/12/17 14:10:49;;;;;;;9.73;7.23;;;9.00;99.90;;;;;;5077301;28;20183;-79
2021/12/17 14:13:24;;;;;;;8.30;6.70;;;9.00;99.90;;;;;;5058213;28;20199;-78
2021/12/17 14:15:52;;;;;;;10.60;6.87;;;8.90;99.90;;;;;;5077093;28;20598;-79
2021/12/17 14:18:21;;;;;;;8.80;6.33;;;8.90;99.90;;;;;;5076625;28;20237;-78
2021/12/17 14:20:52;;;;;;;9.40;6.73;;;9.00;99.90;;;;;;5058151;28;20556;-79
2021/12/17 14:23:21;;;;;;;10.37;6.97;;;9.00;99.90;;;;;;5075657;28;20210;-79
2021/12/17 14:25:52;;;;;;;8.57;6.33;;;9.00;99.90;;;;;;5076409;28;20219;-79
2021/12/17 14:28:37;;;;;;;8.97;7.10;;;9.00;99.90;;;;;;5058588;28;20668;-80
2021/12/17 14:31:15;;;;;;;9.33;5.83;;;9.00;99.90;;;;;;5059722;28;20201;-80
2021/12/17 14:33:46;;;;;;;9.80;6.57;;;9.00;99.90;;;;;;5077268;28;20220;-80
2021/12/17 14:36:14;;;;;;;8.13;6.27;;;9.00;99.90;;;;;;5076940;28;20196;-79
2021/12/17 14:39:04;;;;;;;7.07;5.87;;;8.90;99.90;;;;;;5077302;28;20179;-78
2021/12/17 14:41:57;;;;;;;8.80;6.53;;;8.90;99.90;;;;;;5059561;28;20528;-79
2021/12/17 14:47:12;;;;;;;12.30;8.60;;;8.80;99.90;;;;;;5075922;28;20179;-78
2021/12/17 15:03:40;;;;;;;12.73;10.10;;;8.80;99.90;;;;;;5075594;28;20202;-79
2021/12/17 15:06:06;;;;;;;13.87;10.20;;;8.80;99.90;;;;;;5075231;28;20198;-78
2021/12/17 15:08:32;;;;;;;14.67;9.90;;;8.70;99.90;;;;;;5075991;28;20186;-79
2021/12/17 15:11:02;;;;;;;11.20;9.87;;;8.70;99.90;;;;;;5075217;28;20651;-78
2021/12/17 15:13:28;;;;;;;10.50;9.37;;;8.70;99.90;;;;;;5075274;28;20285;-78
2021/12/17 15:15:54;;;;;;;10.87;9.77;;;8.60;99.90;;;;;;5058034;28;20644;-78
2021/12/17 15:18:20;;;;;;;11.87;9.63;;;8.60;99.90;;;;;;5076353;28;20207;-78
2021/12/17 15:20:51;;;;;;;12.93;9.93;;;8.50;99.90;;;;;;5075850;28;20703;-78
2021/12/17 15:23:18;;;;;;;11.37;9.23;;;8.60;99.90;;;;;;5057713;28;20272;-79
2021/12/17 15:25:45;;;;;;;11.77;8.60;;;8.50;99.90;;;;;;5057778;28;20553;-78
2021/12/17 15:28:12;;;;;;;13.10;8.77;;;8.50;99.90;;;;;;5076252;28;20175;-78
2021/12/17 15:30:44;;;;;;;12.27;10.07;;;8.50;99.90;;;;;;5076182;28;20167;-79
2021/12/17 15:33:11;;;;;;;10.23;8.47;;;8.50;99.90;;;;;;5076156;28;20203;-78
2021/12/17 15:35:37;;;;;;;11.10;8.37;;;8.50;99.90;;;;;;5076347;28;20206;-79
2021/12/17 15:38:07;;;;;;;15.70;8.53;;;8.40;99.90;;;;;;5058861;28;20231;-79
2021/12/17 15:40:41;;;;;;;12.00;8.57;;;8.40;99.90;;;;;;5077038;28;20167;-78
2021/12/17 15:43:08;;;;;;;10.43;8.40;;;8.40;99.90;;;;;;5079881;28;20227;-78
2021/12/17 15:45:37;;;;;;;10.77;8.27;;;8.40;99.90;;;;;;5085617;28;20205;-78
2021/12/17 15:48:07;;;;;;;10.50;7.83;;;8.40;99.90;;;;;;5076008;28;20170;-78
2021/12/17 15:50:33;;;;;;;9.70;7.43;;;8.30;99.90;;;;;;5058069;28;20206;-79
2021/12/17 15:52:59;;;;;;;13.00;8.13;;;8.30;99.90;;;;;;5076255;28;20194;-79
2021/12/17 15:55:27;;;;;;;10.53;8.23;;;8.30;99.90;;;;;;5076593;28;20276;-79
2021/12/17 15:57:57;;;;;;;12.63;8.40;;;8.30;99.90;;;;;;5076887;28;20187;-79
2021/12/17 16:00:26;;;;;;;11.93;7.70;;;8.20;99.90;;;;;;5066082;28;20155;-79